Back to Top

Language: 

My Weather Underground Personal Weather Station Historical Data with Graphs...

Delerius Weather Station Historical Data
Daily Summary for January 17, 2018 Units:  English    Metric   Both
« Previous Day
Next Day »
Daily Weekly Monthly Yearly Custom
  High: Low: Average:
Temperature: 42.1 °F 33.8 °F 37.9 °F
Dew Point: 36.5 °F 31.5 °F 34.8 °F
Humidity: 95 % 79 % 89 %
Wind Speed: 24.0 mph 3.0 mph 11.9 mph
Wind Gust: 37.0 mph - -
Wind:- - WSW
Pressure: 29.62 in 29.18 in -
Precipitation: 0.30 in    
Historical Graphs
 
 
Tabular Data for January 17, 2018
Time Temperature Dew Point Pressure Wind Wind Speed Wind Gust Humidity Rainfall Rate (Hourly) solar Conditions
00:30 34.3 °F 32.0 °F 29.24 in West 9.0 mph 15.0 mph 91 % 0.00 in 0 W/m2
01:02 34.2 °F 31.5 °F 29.24 in WNW 14.0 mph 22.0 mph 90 % 0.00 in 0 W/m2
01:17 33.8 °F 31.7 °F 29.24 in West 12.0 mph 22.0 mph 92 % 0.00 in 0 W/m2
01:39 34.2 °F 32.1 °F 29.25 in West 13.0 mph 19.0 mph 92 % 0.00 in 0 W/m2
02:37 34.5 °F 32.7 °F 29.27 in West 20.0 mph 35.0 mph 93 % 0.01 in 0 W/m2
02:43 34.7 °F 32.9 °F 29.26 in West 18.0 mph 27.0 mph 93 % 0.01 in 0 W/m2
02:49 34.5 °F 32.7 °F 29.27 in West 15.0 mph 24.0 mph 93 % 0.01 in 0 W/m2
02:55 34.7 °F 32.9 °F 29.26 in West 15.0 mph 25.0 mph 93 % 0.01 in 0 W/m2
03:16 35.6 °F 33.0 °F 29.26 in West 20.0 mph 30.0 mph 90 % 0.01 in 0 W/m2
03:28 35.8 °F 33.1 °F 29.29 in West 20.0 mph 30.0 mph 90 % 0.02 in 0 W/m2
03:33 35.4 °F 33.1 °F 29.30 in WNW 21.0 mph 30.0 mph 91 % 0.02 in 0 W/m2
03:41 35.2 °F 33.1 °F 29.30 in WNW 11.0 mph 20.0 mph 92 % 0.02 in 0 W/m2
03:47 35.2 °F 33.1 °F 29.31 in West 14.0 mph 22.0 mph 92 % 0.02 in 0 W/m2
04:00 35.2 °F 33.4 °F 29.30 in West 15.0 mph 25.0 mph 93 % 0.03 in 0 W/m2
04:09 35.4 °F 33.3 °F 29.30 in WNW 17.0 mph 25.0 mph 92 % 0.04 in 0 W/m2
04:20 36.0 °F 33.6 °F 29.31 in WNW 17.0 mph 26.0 mph 91 % 0.04 in 0 W/m2
04:21 36.0 °F 33.6 °F 29.32 in WNW 15.0 mph 21.0 mph 91 % 0.04 in 0 W/m2
04:37 36.0 °F 33.3 °F 29.33 in WNW 15.0 mph 28.0 mph 90 % 0.03 in 0 W/m2
04:46 36.1 °F 33.8 °F 29.33 in WNW 17.0 mph 30.0 mph 91 % 0.02 in 0 W/m2
04:53 36.0 °F 33.6 °F 29.33 in WNW 16.0 mph 24.0 mph 91 % 0.02 in 0 W/m2
05:02 36.1 °F 33.8 °F 29.34 in WNW 17.0 mph 26.0 mph 91 % 0.02 in 0 W/m2
05:31 36.3 °F 33.9 °F 29.37 in West 18.0 mph 30.0 mph 91 % 0.02 in 0 W/m2
05:48 36.3 °F 33.9 °F 29.38 in West 16.0 mph 30.0 mph 91 % 0.02 in 0 W/m2
06:13 35.4 °F 33.3 °F 29.39 in WNW 17.0 mph 26.0 mph 92 % 0.02 in 0 W/m2
06:36 36.1 °F 33.5 °F 29.42 in WNW 16.0 mph 26.0 mph 90 % 0.03 in 0 W/m2
06:51 36.7 °F 34.0 °F 29.42 in West 15.0 mph 25.0 mph 90 % 0.02 in 0 W/m2
07:07 37.2 °F 34.3 °F 29.43 in WNW 22.0 mph 31.0 mph 89 % 0.02 in 0 W/m2
07:20 37.0 °F 34.4 °F 29.45 in WNW 17.0 mph 27.0 mph 90 % 0.02 in 0 W/m2
07:28 37.2 °F 34.6 °F 29.45 in WNW 18.0 mph 30.0 mph 90 % 0.02 in 0 W/m2
07:43 37.6 °F 34.6 °F 29.47 in WNW 16.0 mph 27.0 mph 89 % 0.03 in 0 W/m2
08:03 37.9 °F 34.1 °F 29.48 in West 20.0 mph 32.0 mph 86 % 0.03 in 0 W/m2
08:39 37.9 °F 34.4 °F 29.49 in West 18.0 mph 27.0 mph 87 % 0.02 in 14 W/m2
08:49 38.1 °F 34.3 °F 29.49 in West 18.0 mph 27.0 mph 86 % 0.02 in 30 W/m2
09:01 38.7 °F 34.2 °F 29.49 in West 22.0 mph 36.0 mph 84 % 0.02 in 30 W/m2
09:10 39.0 °F 34.3 °F 29.50 in West 22.0 mph 32.0 mph 83 % 0.02 in 37 W/m2
09:23 39.0 °F 34.6 °F 29.52 in West 22.0 mph 33.0 mph 84 % 0.02 in 53 W/m2
09:28 39.2 °F 34.8 °F 29.52 in West 24.0 mph 37.0 mph 84 % 0.02 in 70 W/m2
09:34 39.0 °F 34.6 °F 29.53 in West 20.0 mph 29.0 mph 84 % 0.02 in 113 W/m2
09:39 39.0 °F 34.6 °F 29.53 in West 19.0 mph 35.0 mph 84 % 0.02 in 74 W/m2
09:44 38.8 °F 34.7 °F 29.53 in West 19.0 mph 29.0 mph 85 % 0.02 in 135 W/m2
09:54 39.4 °F 35.2 °F 29.54 in West 21.0 mph 32.0 mph 85 % 0.02 in 207 W/m2
09:59 39.7 °F 35.6 °F 29.55 in West 21.0 mph 28.0 mph 85 % 0.02 in 223 W/m2
10:08 40.3 °F 35.5 °F 29.56 in West 21.0 mph 30.0 mph 83 % 0.02 in 188 W/m2
10:15 40.5 °F 35.7 °F 29.56 in West 19.0 mph 28.0 mph 83 % 0.02 in 250 W/m2
10:27 40.6 °F 35.6 °F 29.57 in West 16.0 mph 25.0 mph 82 % 0.02 in 47 W/m2
10:35 40.5 °F 35.4 °F 29.57 in West 20.0 mph 32.0 mph 82 % 0.02 in 81 W/m2
10:42 40.8 °F 35.7 °F 29.57 in West 17.0 mph 29.0 mph 82 % 0.01 in 216 W/m2
10:48 40.8 °F 35.7 °F 29.57 in West 15.0 mph 23.0 mph 82 % 0.01 in 225 W/m2
11:15 41.2 °F 36.1 °F 29.59 in West 16.0 mph 25.0 mph 82 % 0.00 in 181 W/m2
11:41 41.9 °F 36.2 °F 29.59 in West 18.0 mph 28.0 mph 80 % 0.00 in 155 W/m2
11:49 41.4 °F 36.0 °F 29.59 in West 11.0 mph 18.0 mph 81 % 0.00 in 281 W/m2
12:06 41.5 °F 36.5 °F 29.59 in West 15.0 mph 23.0 mph 82 % 0.00 in 295 W/m2
12:14 41.9 °F 36.2 °F 29.59 in West 16.0 mph 26.0 mph 80 % 0.00 in 290 W/m2
12:32 42.1 °F 36.0 °F 29.60 in West 13.0 mph 21.0 mph 79 % 0.00 in 197 W/m2
12:40 41.4 °F 35.3 °F 29.60 in West 16.0 mph 25.0 mph 79 % 0.00 in 58 W/m2
12:45 41.2 °F 35.8 °F 29.61 in West 11.0 mph 18.0 mph 81 % 0.00 in 199 W/m2
12:51 41.2 °F 36.1 °F 29.60 in West 13.0 mph 20.0 mph 82 % 0.00 in 160 W/m2
13:02 41.2 °F 35.5 °F 29.60 in West 12.0 mph 19.0 mph 80 % 0.00 in 86 W/m2
13:09 41.2 °F 35.8 °F 29.61 in West 12.0 mph 21.0 mph 81 % 0.00 in 269 W/m2
13:22 40.8 °F 35.7 °F 29.62 in West 17.0 mph 25.0 mph 82 % 0.00 in 63 W/m2
13:30 40.5 °F 36.0 °F 29.61 in WNW 15.0 mph 23.0 mph 84 % 0.00 in 74 W/m2
13:37 40.1 °F 36.5 °F 29.61 in West 13.0 mph 24.0 mph 87 % 0.00 in 118 W/m2
13:59 39.6 °F 35.7 °F 29.61 in West 12.0 mph 20.0 mph 86 % 0.00 in 197 W/m2
14:05 39.7 °F 35.9 °F 29.61 in WSW 10.0 mph 15.0 mph 86 % 0.00 in 174 W/m2
14:10 39.9 °F 35.8 °F 29.61 in West 11.0 mph 18.0 mph 85 % 0.00 in 123 W/m2
14:23 39.9 °F 35.8 °F 29.61 in West 13.0 mph 23.0 mph 85 % 0.00 in 21 W/m2
14:45 39.9 °F 36.4 °F 29.61 in West 9.0 mph 15.0 mph 87 % 0.01 in 84 W/m2
14:50 39.9 °F 36.1 °F 29.61 in West 10.0 mph 14.0 mph 86 % 0.01 in 28 W/m2
14:56 39.7 °F 35.9 °F 29.61 in West 12.0 mph 18.0 mph 86 % 0.01 in 21 W/m2
15:03 39.7 °F 35.9 °F 29.61 in West 10.0 mph 15.0 mph 86 % 0.01 in 86 W/m2
15:34 39.2 °F 35.9 °F 29.62 in WSW 7.0 mph 11.0 mph 88 % 0.00 in 19 W/m2
15:42 39.0 °F 35.8 °F 29.62 in West 8.0 mph 13.0 mph 88 % 0.00 in 42 W/m2
15:51 39.2 °F 35.7 °F 29.61 in WSW 8.0 mph 12.0 mph 87 % 0.00 in 16 W/m2
15:58 39.4 °F 35.8 °F 29.61 in WSW 9.0 mph 15.0 mph 87 % 0.00 in 9 W/m2
16:04 39.6 °F 35.7 °F 29.61 in West 11.0 mph 19.0 mph 86 % 0.00 in 0 W/m2
16:25 39.4 °F 36.1 °F 29.62 in WSW 16.0 mph 24.0 mph 88 % 0.00 in 0 W/m2
16:37 38.8 °F 35.9 °F 29.62 in WSW 10.0 mph 14.0 mph 89 % 0.00 in 0 W/m2
16:50 38.8 °F 35.9 °F 29.61 in WSW 10.0 mph 18.0 mph 89 % 0.00 in 0 W/m2
16:56 38.8 °F 35.9 °F 29.62 in West 9.0 mph 16.0 mph 89 % 0.00 in 0 W/m2
17:05 38.8 °F 35.6 °F 29.62 in WSW 12.0 mph 20.0 mph 88 % 0.00 in 0 W/m2
17:11 39.0 °F 35.8 °F 29.61 in WSW 14.0 mph 21.0 mph 88 % 0.00 in 0 W/m2
17:26 38.7 °F 35.7 °F 29.61 in WSW 8.0 mph 12.0 mph 89 % 0.00 in 0 W/m2
17:32 38.7 °F 35.7 °F 29.61 in WSW 10.0 mph 16.0 mph 89 % 0.00 in 0 W/m2
17:38 38.7 °F 35.7 °F 29.60 in WSW 8.0 mph 12.0 mph 89 % 0.00 in 0 W/m2
17:44 38.5 °F 35.5 °F 29.60 in WSW 7.0 mph 10.0 mph 89 % 0.01 in 0 W/m2
17:55 38.5 °F 35.5 °F 29.60 in WSW 11.0 mph 18.0 mph 89 % 0.01 in 0 W/m2
18:13 38.8 °F 35.6 °F 29.60 in WSW 9.0 mph 13.0 mph 88 % 0.01 in 0 W/m2
18:21 39.0 °F 35.5 °F 29.59 in WSW 11.0 mph 21.0 mph 87 % 0.01 in 0 W/m2
18:28 39.4 °F 35.5 °F 29.59 in SW 10.0 mph 15.0 mph 86 % 0.01 in 0 W/m2
18:40 39.6 °F 35.1 °F 29.59 in WSW 15.0 mph 22.0 mph 84 % 0.01 in 0 W/m2
18:46 39.7 °F 35.3 °F 29.59 in WSW 13.0 mph 20.0 mph 84 % 0.00 in 0 W/m2
19:02 39.4 °F 35.2 °F 29.58 in WSW 8.0 mph 14.0 mph 85 % 0.00 in 0 W/m2
19:07 39.0 °F 35.2 °F 29.57 in WSW 6.0 mph 13.0 mph 86 % 0.00 in 0 W/m2
19:38 39.6 °F 35.1 °F 29.56 in WSW 7.0 mph 11.0 mph 84 % 0.00 in 0 W/m2
19:43 39.6 °F 35.1 °F 29.56 in SW 10.0 mph 14.0 mph 84 % 0.00 in 0 W/m2
19:48 39.6 °F 35.1 °F 29.55 in WSW 11.0 mph 19.0 mph 84 % 0.00 in 0 W/m2
19:53 39.6 °F 35.1 °F 29.56 in SW 11.0 mph 16.0 mph 84 % 0.00 in 0 W/m2
19:58 39.6 °F 35.4 °F 29.55 in SW 9.0 mph 12.0 mph 85 % 0.00 in 0 W/m2
20:03 39.4 °F 35.2 °F 29.55 in WSW 10.0 mph 16.0 mph 85 % 0.00 in 0 W/m2
20:08 39.4 °F 35.2 °F 29.54 in SW 11.0 mph 16.0 mph 85 % 0.00 in 0 W/m2
20:13 39.2 °F 35.4 °F 29.54 in WSW 9.0 mph 14.0 mph 86 % 0.00 in 0 W/m2
20:18 39.0 °F 35.2 °F 29.53 in SW 10.0 mph 15.0 mph 86 % 0.00 in 0 W/m2
20:23 39.0 °F 35.5 °F 29.53 in SW 12.0 mph 19.0 mph 87 % 0.00 in 0 W/m2
20:29 38.8 °F 35.3 °F 29.52 in SW 9.0 mph 12.0 mph 87 % 0.00 in 0 W/m2
20:35 38.7 °F 35.4 °F 29.52 in SW 9.0 mph 13.0 mph 88 % 0.00 in 0 W/m2
20:37 38.7 °F 35.4 °F 29.52 in SW 10.0 mph 13.0 mph 88 % 0.00 in 0 W/m2
20:41 38.5 °F 35.5 °F 29.52 in SW 9.0 mph 15.0 mph 89 % 0.00 in 0 W/m2
20:44 38.5 °F 35.5 °F 29.51 in SW 10.0 mph 14.0 mph 89 % 0.00 in 0 W/m2
20:46 38.3 °F 35.3 °F 29.51 in SW 9.0 mph 14.0 mph 89 % 0.00 in 0 W/m2
20:51 38.1 °F 35.4 °F 29.50 in SW 10.0 mph 16.0 mph 90 % 0.00 in 0 W/m2
20:56 37.9 °F 35.3 °F 29.50 in SW 7.0 mph 12.0 mph 90 % 0.00 in 0 W/m2
21:01 37.9 °F 35.3 °F 29.50 in SW 7.0 mph 11.0 mph 90 % 0.00 in 0 W/m2
21:05 37.9 °F 35.3 °F 29.50 in SW 7.0 mph 11.0 mph 90 % 0.00 in 0 W/m2
21:10 37.8 °F 35.4 °F 29.49 in SW 6.0 mph 9.0 mph 91 % 0.00 in 0 W/m2
21:12 37.8 °F 35.4 °F 29.49 in SSW 5.0 mph 8.0 mph 91 % 0.00 in 0 W/m2
21:17 37.8 °F 35.4 °F 29.48 in SSW 7.0 mph 11.0 mph 91 % 0.00 in 0 W/m2
21:19 37.8 °F 35.4 °F 29.48 in SSW 5.0 mph 9.0 mph 91 % 0.00 in 0 W/m2
21:20 37.8 °F 35.4 °F 29.48 in SSW 6.0 mph 9.0 mph 91 % 0.00 in 0 W/m2
21:21 37.8 °F 35.4 °F 29.48 in SSW 6.0 mph 7.0 mph 91 % 0.00 in 0 W/m2
21:25 37.6 °F 35.2 °F 29.48 in SSW 5.0 mph 8.0 mph 91 % 0.00 in 0 W/m2
21:26 37.6 °F 35.2 °F 29.48 in SSW 5.0 mph 8.0 mph 91 % 0.00 in 0 W/m2
21:27 37.6 °F 35.2 °F 29.48 in SSW 4.0 mph 8.0 mph 91 % 0.00 in 0 W/m2
21:32 37.6 °F 35.5 °F 29.47 in SSW 7.0 mph 11.0 mph 92 % 0.00 in 0 W/m2
21:34 37.6 °F 35.5 °F 29.47 in SSW 5.0 mph 11.0 mph 92 % 0.00 in 0 W/m2
21:39 37.6 °F 35.5 °F 29.46 in SSW 5.0 mph 9.0 mph 92 % 0.01 in 0 W/m2
21:45 37.4 °F 35.3 °F 29.45 in SSW 4.0 mph 8.0 mph 92 % 0.01 in 0 W/m2
21:48 37.4 °F 35.3 °F 29.44 in SSW 7.0 mph 13.0 mph 92 % 0.01 in 0 W/m2
21:50 37.4 °F 35.3 °F 29.44 in SSW 6.0 mph 13.0 mph 92 % 0.01 in 0 W/m2
21:55 37.4 °F 35.3 °F 29.44 in South 5.0 mph 8.0 mph 92 % 0.01 in 0 W/m2
22:00 37.4 °F 35.3 °F 29.42 in South 3.0 mph 7.0 mph 92 % 0.01 in 0 W/m2
22:05 37.2 °F 35.1 °F 29.42 in South 5.0 mph 8.0 mph 92 % 0.01 in 0 W/m2
22:10 37.2 °F 35.1 °F 29.41 in SSE 6.0 mph 11.0 mph 92 % 0.02 in 0 W/m2
22:15 37.0 °F 34.9 °F 29.40 in South 7.0 mph 10.0 mph 92 % 0.02 in 0 W/m2
22:20 37.0 °F 35.2 °F 29.38 in SSE 8.0 mph 12.0 mph 93 % 0.02 in 0 W/m2
22:25 36.7 °F 34.8 °F 29.37 in South 10.0 mph 19.0 mph 93 % 0.02 in 0 W/m2
22:30 36.3 °F 34.5 °F 29.36 in SSE 9.0 mph 15.0 mph 93 % 0.03 in 0 W/m2
22:35 36.1 °F 34.3 °F 29.35 in SSE 9.0 mph 16.0 mph 93 % 0.03 in 0 W/m2
22:40 36.0 °F 34.1 °F 29.33 in SSE 10.0 mph 19.0 mph 93 % 0.03 in 0 W/m2
22:45 36.0 °F 34.1 °F 29.33 in South 10.0 mph 20.0 mph 93 % 0.04 in 0 W/m2
22:50 35.8 °F 34.2 °F 29.32 in SSE 7.0 mph 12.0 mph 94 % 0.05 in 0 W/m2
22:55 35.4 °F 33.9 °F 29.31 in SSE 10.0 mph 16.0 mph 94 % 0.06 in 0 W/m2
23:00 35.2 °F 33.7 °F 29.30 in SSE 9.0 mph 15.0 mph 94 % 0.06 in 0 W/m2
23:05 35.1 °F 33.5 °F 29.29 in SSE 10.0 mph 16.0 mph 94 % 0.06 in 0 W/m2
23:10 34.9 °F 33.3 °F 29.28 in SSE 8.0 mph 12.0 mph 94 % 0.06 in 0 W/m2
23:15 34.7 °F 33.2 °F 29.27 in SSE 9.0 mph 14.0 mph 94 % 0.06 in 0 W/m2
23:20 34.7 °F 33.2 °F 29.26 in SSE 10.0 mph 15.0 mph 94 % 0.06 in 0 W/m2
23:25 34.5 °F 33.0 °F 29.25 in SSE 8.0 mph 13.0 mph 94 % 0.06 in 0 W/m2
23:30 34.5 °F 33.2 °F 29.24 in SSE 9.0 mph 13.0 mph 95 % 0.06 in 0 W/m2
23:35 34.7 °F 33.4 °F 29.23 in SE 10.0 mph 15.0 mph 95 % 0.06 in 0 W/m2
23:40 34.5 °F 33.2 °F 29.22 in SSE 9.0 mph 15.0 mph 95 % 0.06 in 0 W/m2
23:45 34.5 °F 33.2 °F 29.21 in SSE 8.0 mph 13.0 mph 95 % 0.05 in 0 W/m2
23:47 34.5 °F 33.2 °F 29.20 in SSE 8.0 mph 13.0 mph 95 % 0.05 in 0 W/m2
23:52 34.5 °F 33.2 °F 29.20 in SSE 8.0 mph 15.0 mph 95 % 0.05 in 0 W/m2
23:57 34.9 °F 33.6 °F 29.18 in SSE 7.0 mph 13.0 mph 95 % 0.04 in 0 W/m2
Delerius-Weather
Compliments of Weather Underground - 1.5 mb

Data updates at regular intervals.